sensor_id;sensor_type;location;lat;lon;timestamp;P1;durP1;ratioP1;P2;durP2;ratioP2
70459;SDS011;57920;54.796;9.430;2022-10-16T00:01:03;2.93;;;1.80;;
70459;SDS011;57920;54.796;9.430;2022-10-16T00:03:30;1.60;;;1.50;;
70459;SDS011;57920;54.796;9.430;2022-10-16T00:05:58;5.03;;;1.80;;
70459;SDS011;57920;54.796;9.430;2022-10-16T00:08:25;2.07;;;1.73;;
70459;SDS011;57920;54.796;9.430;2022-10-16T00:10:51;2.10;;;1.60;;
70459;SDS011;57920;54.796;9.430;2022-10-16T00:13:17;1.83;;;1.50;;
70459;SDS011;57920;54.796;9.430;2022-10-16T00:15:44;2.67;;;1.83;;
70459;SDS011;57920;54.796;9.430;2022-10-16T00:18:11;3.77;;;1.50;;
70459;SDS011;57920;54.796;9.430;2022-10-16T00:20:37;2.60;;;1.60;;
70459;SDS011;57920;54.796;9.430;2022-10-16T00:23:03;2.27;;;1.57;;
70459;SDS011;57920;54.796;9.430;2022-10-16T00:25:30;1.80;;;1.30;;
70459;SDS011;57920;54.796;9.430;2022-10-16T00:27:57;2.33;;;1.47;;
70459;SDS011;57920;54.796;9.430;2022-10-16T00:30:24;2.73;;;1.63;;
70459;SDS011;57920;54.796;9.430;2022-10-16T00:32:52;3.43;;;1.77;;
70459;SDS011;57920;54.796;9.430;2022-10-16T00:35:37;2.53;;;2.33;;
70459;SDS011;57920;54.796;9.430;2022-10-16T00:38:02;2.67;;;2.30;;
70459;SDS011;57920;54.796;9.430;2022-10-16T00:40:28;4.10;;;2.77;;
70459;SDS011;57920;54.796;9.430;2022-10-16T00:42:54;2.83;;;2.63;;
70459;SDS011;57920;54.796;9.430;2022-10-16T00:45:20;3.30;;;2.43;;
70459;SDS011;57920;54.796;9.430;2022-10-16T00:47:45;5.80;;;3.40;;
70459;SDS011;57920;54.796;9.430;2022-10-16T00:50:26;4.83;;;3.63;;
70459;SDS011;57920;54.796;9.430;2022-10-16T00:52:55;4.67;;;4.13;;
70459;SDS011;57920;54.796;9.430;2022-10-16T00:55:25;5.30;;;4.13;;
70459;SDS011;57920;54.796;9.430;2022-10-16T00:57:53;6.80;;;5.37;;
70459;SDS011;57920;54.796;9.430;2022-10-16T01:00:21;6.13;;;5.43;;
70459;SDS011;57920;54.796;9.430;2022-10-16T01:02:53;9.60;;;6.97;;
70459;SDS011;57920;54.796;9.430;2022-10-16T01:05:19;11.70;;;8.13;;
70459;SDS011;57920;54.796;9.430;2022-10-16T01:07:56;9.27;;;7.57;;
70459;SDS011;57920;54.796;9.430;2022-10-16T01:13:09;13.13;;;7.97;;
70459;SDS011;57920;54.796;9.430;2022-10-16T01:15:54;15.37;;;8.47;;
70459;SDS011;57920;54.796;9.430;2022-10-16T01:18:37;10.50;;;7.80;;
70459;SDS011;57920;54.796;9.430;2022-10-16T01:21:13;14.30;;;9.10;;
70459;SDS011;57920;54.796;9.430;2022-10-16T01:24:48;11.33;;;7.93;;
70459;SDS011;57920;54.796;9.430;2022-10-16T01:35:11;19.50;;;12.97;;
70459;SDS011;57920;54.796;9.430;2022-10-16T01:37:48;21.83;;;14.17;;
70459;SDS011;57920;54.796;9.430;2022-10-16T01:40:17;20.17;;;13.83;;
70459;SDS011;57920;54.796;9.430;2022-10-16T01:42:46;20.43;;;14.43;;
70459;SDS011;57920;54.796;9.430;2022-10-16T01:45:16;19.13;;;14.30;;
70459;SDS011;57920;54.796;9.430;2022-10-16T01:47:44;19.67;;;13.00;;
70459;SDS011;57920;54.796;9.430;2022-10-16T01:50:11;23.27;;;15.03;;
70459;SDS011;57920;54.796;9.430;2022-10-16T01:52:40;21.60;;;14.30;;
70459;SDS011;57920;54.796;9.430;2022-10-16T01:55:10;22.17;;;14.70;;
70459;SDS011;57920;54.796;9.430;2022-10-16T01:57:39;20.27;;;14.57;;
70459;SDS011;57920;54.796;9.430;2022-10-16T02:00:10;20.97;;;14.33;;
70459;SDS011;57920;54.796;9.430;2022-10-16T12:58:49;1.67;;;1.13;;
70459;SDS011;57920;54.796;9.430;2022-10-16T13:10:30;2.67;;;1.30;;
70459;SDS011;57920;54.796;9.430;2022-10-16T13:13:10;2.70;;;1.10;;
70459;SDS011;57920;54.796;9.430;2022-10-16T13:30:30;2.00;;;1.20;;
70459;SDS011;57920;54.796;9.430;2022-10-16T13:35:47;4.23;;;1.70;;
70459;SDS011;57920;54.796;9.430;2022-10-16T13:38:19;3.50;;;1.30;;
70459;SDS011;57920;54.796;9.430;2022-10-16T13:40:54;2.23;;;1.50;;
70459;SDS011;57920;54.796;9.430;2022-10-16T13:43:35;3.60;;;1.33;;
70459;SDS011;57920;54.796;9.430;2022-10-16T13:46:10;3.57;;;1.60;;
70459;SDS011;57920;54.796;9.430;2022-10-16T13:48:38;2.50;;;1.63;;
70459;SDS011;57920;54.796;9.430;2022-10-16T13:51:11;2.53;;;1.30;;
70459;SDS011;57920;54.796;9.430;2022-10-16T13:53:39;2.97;;;2.10;;
70459;SDS011;57920;54.796;9.430;2022-10-16T13:56:07;4.53;;;1.87;;
70459;SDS011;57920;54.796;9.430;2022-10-16T13:58:35;3.60;;;1.83;;
70459;SDS011;57920;54.796;9.430;2022-10-16T14:01:02;3.73;;;1.63;;
70459;SDS011;57920;54.796;9.430;2022-10-16T14:03:48;2.87;;;1.33;;
70459;SDS011;57920;54.796;9.430;2022-10-16T14:06:16;4.13;;;2.27;;
70459;SDS011;57920;54.796;9.430;2022-10-16T14:08:48;4.07;;;1.60;;
70459;SDS011;57920;54.796;9.430;2022-10-16T14:11:21;3.20;;;1.63;;
70459;SDS011;57920;54.796;9.430;2022-10-16T14:13:48;3.63;;;1.53;;
70459;SDS011;57920;54.796;9.430;2022-10-16T14:16:20;1.83;;;1.33;;
70459;SDS011;57920;54.796;9.430;2022-10-16T14:18:52;2.37;;;1.33;;
70459;SDS011;57920;54.796;9.430;2022-10-16T14:21:29;1.40;;;1.10;;
70459;SDS011;57920;54.796;9.430;2022-10-16T14:23:55;3.80;;;1.50;;
70459;SDS011;57920;54.796;9.430;2022-10-16T14:26:25;3.97;;;1.63;;
70459;SDS011;57920;54.796;9.430;2022-10-16T14:29:03;2.93;;;2.00;;
70459;SDS011;57920;54.796;9.430;2022-10-16T14:31:40;6.07;;;1.53;;
70459;SDS011;57920;54.796;9.430;2022-10-16T14:36:53;3.33;;;1.73;;
70459;SDS011;57920;54.796;9.430;2022-10-16T14:39:20;2.57;;;1.53;;
70459;SDS011;57920;54.796;9.430;2022-10-16T14:41:48;4.60;;;1.70;;
70459;SDS011;57920;54.796;9.430;2022-10-16T14:44:14;3.00;;;1.33;;
70459;SDS011;57920;54.796;9.430;2022-10-16T14:46:43;2.80;;;1.60;;
70459;SDS011;57920;54.796;9.430;2022-10-16T14:51:35;3.00;;;1.17;;
70459;SDS011;57920;54.796;9.430;2022-10-16T14:54:09;2.90;;;1.70;;
70459;SDS011;57920;54.796;9.430;2022-10-16T15:02:46;4.80;;;1.40;;
70459;SDS011;57920;54.796;9.430;2022-10-16T15:04:53;5.10;;;1.57;;
70459;SDS011;57920;54.796;9.430;2022-10-16T15:07:19;3.27;;;1.60;;
70459;SDS011;57920;54.796;9.430;2022-10-16T15:09:44;4.70;;;1.67;;
70459;SDS011;57920;54.796;9.430;2022-10-16T15:12:10;3.23;;;1.33;;
70459;SDS011;57920;54.796;9.430;2022-10-16T15:14:35;2.60;;;1.60;;
70459;SDS011;57920;54.796;9.430;2022-10-16T15:17:02;4.33;;;1.43;;
70459;SDS011;57920;54.796;9.430;2022-10-16T15:19:28;4.17;;;1.83;;
70459;SDS011;57920;54.796;9.430;2022-10-16T15:21:54;5.43;;;2.10;;
70459;SDS011;57920;54.796;9.430;2022-10-16T15:24:20;2.80;;;1.40;;
70459;SDS011;57920;54.796;9.430;2022-10-16T15:26:46;4.37;;;1.90;;
70459;SDS011;57920;54.796;9.430;2022-10-16T15:29:12;3.23;;;1.30;;
70459;SDS011;57920;54.796;9.430;2022-10-16T15:31:38;1.97;;;1.20;;
70459;SDS011;57920;54.796;9.430;2022-10-16T15:34:04;3.30;;;1.60;;
70459;SDS011;57920;54.796;9.430;2022-10-16T15:36:34;4.20;;;1.80;;
70459;SDS011;57920;54.796;9.430;2022-10-16T15:39:05;3.43;;;1.57;;
70459;SDS011;57920;54.796;9.430;2022-10-16T15:41:36;2.77;;;1.43;;
70459;SDS011;57920;54.796;9.430;2022-10-16T15:44:02;2.40;;;1.43;;
70459;SDS011;57920;54.796;9.430;2022-10-16T15:46:28;4.77;;;1.77;;
70459;SDS011;57920;54.796;9.430;2022-10-16T15:48:56;4.10;;;1.40;;
70459;SDS011;57920;54.796;9.430;2022-10-16T15:51:23;2.67;;;1.20;;
70459;SDS011;57920;54.796;9.430;2022-10-16T15:53:49;2.97;;;1.40;;
70459;SDS011;57920;54.796;9.430;2022-10-16T15:56:16;5.10;;;1.57;;
70459;SDS011;57920;54.796;9.430;2022-10-16T15:58:42;4.50;;;1.80;;
70459;SDS011;57920;54.796;9.430;2022-10-16T16:01:08;4.80;;;1.57;;
70459;SDS011;57920;54.796;9.430;2022-10-16T16:03:35;4.47;;;1.40;;
70459;SDS011;57920;54.796;9.430;2022-10-16T16:06:05;3.30;;;1.53;;
70459;SDS011;57920;54.796;9.430;2022-10-16T16:08:32;4.47;;;1.43;;
70459;SDS011;57920;54.796;9.430;2022-10-16T16:13:37;3.43;;;1.50;;
70459;SDS011;57920;54.796;9.430;2022-10-16T16:16:13;2.57;;;1.37;;
70459;SDS011;57920;54.796;9.430;2022-10-16T16:18:41;3.83;;;1.63;;
70459;SDS011;57920;54.796;9.430;2022-10-16T16:21:08;2.90;;;1.47;;
70459;SDS011;57920;54.796;9.430;2022-10-16T16:23:36;4.07;;;1.40;;
70459;SDS011;57920;54.796;9.430;2022-10-16T16:28:39;3.23;;;1.40;;
70459;SDS011;57920;54.796;9.430;2022-10-16T16:31:05;3.37;;;2.00;;
70459;SDS011;57920;54.796;9.430;2022-10-16T16:33:31;4.40;;;1.57;;
70459;SDS011;57920;54.796;9.430;2022-10-16T16:36:02;3.80;;;1.67;;
70459;SDS011;57920;54.796;9.430;2022-10-16T16:38:29;4.23;;;1.97;;
70459;SDS011;57920;54.796;9.430;2022-10-16T16:40:55;3.63;;;1.77;;
70459;SDS011;57920;54.796;9.430;2022-10-16T16:43:24;4.93;;;1.70;;
70459;SDS011;57920;54.796;9.430;2022-10-16T16:45:51;4.17;;;2.20;;
70459;SDS011;57920;54.796;9.430;2022-10-16T16:48:17;3.63;;;1.90;;
70459;SDS011;57920;54.796;9.430;2022-10-16T16:50:42;2.30;;;1.43;;
70459;SDS011;57920;54.796;9.430;2022-10-16T16:53:08;3.87;;;1.97;;
70459;SDS011;57920;54.796;9.430;2022-10-16T16:55:33;4.97;;;2.20;;
70459;SDS011;57920;54.796;9.430;2022-10-16T16:57:59;2.73;;;1.70;;
70459;SDS011;57920;54.796;9.430;2022-10-16T17:00:25;3.30;;;1.80;;
70459;SDS011;57920;54.796;9.430;2022-10-16T17:02:50;3.53;;;1.13;;
70459;SDS011;57920;54.796;9.430;2022-10-16T17:05:18;3.40;;;1.40;;
70459;SDS011;57920;54.796;9.430;2022-10-16T17:07:44;2.40;;;1.50;;
70459;SDS011;57920;54.796;9.430;2022-10-16T17:10:09;3.07;;;1.53;;
70459;SDS011;57920;54.796;9.430;2022-10-16T17:12:35;3.17;;;1.67;;
70459;SDS011;57920;54.796;9.430;2022-10-16T17:15:01;3.40;;;1.90;;
70459;SDS011;57920;54.796;9.430;2022-10-16T17:17:26;3.57;;;1.60;;
70459;SDS011;57920;54.796;9.430;2022-10-16T17:19:52;3.57;;;1.93;;
70459;SDS011;57920;54.796;9.430;2022-10-16T17:22:18;2.73;;;1.37;;
70459;SDS011;57920;54.796;9.430;2022-10-16T17:24:44;4.80;;;1.70;;
70459;SDS011;57920;54.796;9.430;2022-10-16T17:27:14;2.57;;;1.27;;
70459;SDS011;57920;54.796;9.430;2022-10-16T17:29:40;4.43;;;1.73;;
70459;SDS011;57920;54.796;9.430;2022-10-16T17:32:05;2.33;;;1.90;;
70459;SDS011;57920;54.796;9.430;2022-10-16T17:34:31;2.47;;;1.70;;
70459;SDS011;57920;54.796;9.430;2022-10-16T17:36:57;4.27;;;1.70;;
70459;SDS011;57920;54.796;9.430;2022-10-16T17:39:22;3.67;;;1.50;;
70459;SDS011;57920;54.796;9.430;2022-10-16T17:41:48;4.30;;;2.00;;
70459;SDS011;57920;54.796;9.430;2022-10-16T17:44:13;4.50;;;1.83;;
70459;SDS011;57920;54.796;9.430;2022-10-16T17:46:50;2.60;;;1.53;;
70459;SDS011;57920;54.796;9.430;2022-10-16T17:49:18;3.20;;;1.60;;
70459;SDS011;57920;54.796;9.430;2022-10-16T17:51:44;5.17;;;2.10;;
70459;SDS011;57920;54.796;9.430;2022-10-16T17:54:13;3.63;;;1.60;;
70459;SDS011;57920;54.796;9.430;2022-10-16T17:56:38;4.27;;;1.57;;
70459;SDS011;57920;54.796;9.430;2022-10-16T17:59:04;4.23;;;2.00;;
70459;SDS011;57920;54.796;9.430;2022-10-16T18:01:35;6.00;;;2.30;;
70459;SDS011;57920;54.796;9.430;2022-10-16T18:04:08;4.83;;;2.43;;
70459;SDS011;57920;54.796;9.430;2022-10-16T18:06:36;3.53;;;1.90;;
70459;SDS011;57920;54.796;9.430;2022-10-16T18:09:03;4.63;;;2.33;;
70459;SDS011;57920;54.796;9.430;2022-10-16T18:11:29;4.33;;;2.03;;
70459;SDS011;57920;54.796;9.430;2022-10-16T18:13:56;4.43;;;2.03;;
70459;SDS011;57920;54.796;9.430;2022-10-16T18:16:23;3.10;;;1.90;;
70459;SDS011;57920;54.796;9.430;2022-10-16T18:18:49;3.30;;;1.93;;
70459;SDS011;57920;54.796;9.430;2022-10-16T18:21:16;3.73;;;1.63;;
70459;SDS011;57920;54.796;9.430;2022-10-16T18:23:42;3.13;;;1.97;;
70459;SDS011;57920;54.796;9.430;2022-10-16T18:26:09;3.10;;;1.90;;
70459;SDS011;57920;54.796;9.430;2022-10-16T18:28:36;6.63;;;2.47;;
70459;SDS011;57920;54.796;9.430;2022-10-16T18:31:12;4.23;;;2.10;;
70459;SDS011;57920;54.796;9.430;2022-10-16T18:33:40;3.17;;;2.00;;
70459;SDS011;57920;54.796;9.430;2022-10-16T18:36:12;3.97;;;2.27;;
70459;SDS011;57920;54.796;9.430;2022-10-16T18:38:39;3.63;;;2.10;;
70459;SDS011;57920;54.796;9.430;2022-10-16T18:41:05;3.80;;;2.20;;
70459;SDS011;57920;54.796;9.430;2022-10-16T18:43:31;3.97;;;1.87;;
70459;SDS011;57920;54.796;9.430;2022-10-16T18:45:58;3.50;;;2.40;;
70459;SDS011;57920;54.796;9.430;2022-10-16T18:48:26;5.67;;;2.77;;
70459;SDS011;57920;54.796;9.430;2022-10-16T18:50:51;5.10;;;2.43;;
70459;SDS011;57920;54.796;9.430;2022-10-16T18:53:17;4.70;;;2.33;;
70459;SDS011;57920;54.796;9.430;2022-10-16T18:55:49;6.67;;;2.27;;
70459;SDS011;57920;54.796;9.430;2022-10-16T18:58:17;4.47;;;1.87;;
70459;SDS011;57920;54.796;9.430;2022-10-16T19:00:42;5.70;;;2.47;;
70459;SDS011;57920;54.796;9.430;2022-10-16T19:03:08;5.77;;;2.70;;
70459;SDS011;57920;54.796;9.430;2022-10-16T19:05:33;4.23;;;2.20;;
70459;SDS011;57920;54.796;9.430;2022-10-16T19:07:59;4.40;;;2.40;;
70459;SDS011;57920;54.796;9.430;2022-10-16T19:10:24;4.70;;;2.43;;
70459;SDS011;57920;54.796;9.430;2022-10-16T19:12:50;4.67;;;2.17;;
70459;SDS011;57920;54.796;9.430;2022-10-16T19:15:16;4.07;;;1.83;;
70459;SDS011;57920;54.796;9.430;2022-10-16T19:17:41;4.33;;;1.83;;
70459;SDS011;57920;54.796;9.430;2022-10-16T19:23:00;3.20;;;1.63;;
70459;SDS011;57920;54.796;9.430;2022-10-16T19:25:28;4.13;;;2.10;;
70459;SDS011;57920;54.796;9.430;2022-10-16T19:27:53;6.10;;;2.70;;
70459;SDS011;57920;54.796;9.430;2022-10-16T19:30:19;4.20;;;2.37;;
70459;SDS011;57920;54.796;9.430;2022-10-16T19:32:45;5.87;;;2.20;;
70459;SDS011;57920;54.796;9.430;2022-10-16T19:35:13;3.83;;;2.03;;
70459;SDS011;57920;54.796;9.430;2022-10-16T19:37:39;4.47;;;2.70;;
70459;SDS011;57920;54.796;9.430;2022-10-16T19:40:05;5.20;;;2.70;;
70459;SDS011;57920;54.796;9.430;2022-10-16T19:42:31;4.83;;;2.23;;
70459;SDS011;57920;54.796;9.430;2022-10-16T19:44:56;4.57;;;2.40;;
70459;SDS011;57920;54.796;9.430;2022-10-16T19:47:22;4.90;;;2.87;;
70459;SDS011;57920;54.796;9.430;2022-10-16T19:49:48;4.77;;;2.10;;
70459;SDS011;57920;54.796;9.430;2022-10-16T19:52:14;4.13;;;2.00;;
70459;SDS011;57920;54.796;9.430;2022-10-16T19:54:41;5.37;;;2.50;;
70459;SDS011;57920;54.796;9.430;2022-10-16T19:57:07;4.70;;;2.50;;
70459;SDS011;57920;54.796;9.430;2022-10-16T19:59:33;3.43;;;2.30;;
70459;SDS011;57920;54.796;9.430;2022-10-16T20:01:59;5.10;;;2.60;;
70459;SDS011;57920;54.796;9.430;2022-10-16T20:04:25;3.80;;;1.97;;
70459;SDS011;57920;54.796;9.430;2022-10-16T20:06:50;5.23;;;2.47;;
70459;SDS011;57920;54.796;9.430;2022-10-16T20:09:16;3.73;;;2.60;;
70459;SDS011;57920;54.796;9.430;2022-10-16T20:11:41;3.50;;;2.10;;
70459;SDS011;57920;54.796;9.430;2022-10-16T20:14:07;6.17;;;2.70;;
70459;SDS011;57920;54.796;9.430;2022-10-16T20:16:33;4.87;;;2.50;;
70459;SDS011;57920;54.796;9.430;2022-10-16T20:18:58;5.33;;;2.37;;
70459;SDS011;57920;54.796;9.430;2022-10-16T20:21:29;3.23;;;2.60;;
70459;SDS011;57920;54.796;9.430;2022-10-16T20:24:01;5.20;;;2.60;;
70459;SDS011;57920;54.796;9.430;2022-10-16T20:26:29;4.33;;;1.97;;
70459;SDS011;57920;54.796;9.430;2022-10-16T20:28:54;5.13;;;2.07;;
70459;SDS011;57920;54.796;9.430;2022-10-16T20:31:21;4.67;;;2.37;;
70459;SDS011;57920;54.796;9.430;2022-10-16T20:33:50;4.93;;;2.63;;
70459;SDS011;57920;54.796;9.430;2022-10-16T20:36:18;5.70;;;2.27;;
70459;SDS011;57920;54.796;9.430;2022-10-16T20:38:44;5.07;;;2.77;;
70459;SDS011;57920;54.796;9.430;2022-10-16T20:41:10;4.07;;;2.23;;
70459;SDS011;57920;54.796;9.430;2022-10-16T20:43:40;5.70;;;2.10;;
70459;SDS011;57920;54.796;9.430;2022-10-16T20:46:09;4.70;;;2.20;;
70459;SDS011;57920;54.796;9.430;2022-10-16T20:48:40;3.83;;;1.97;;
70459;SDS011;57920;54.796;9.430;2022-10-16T20:53:37;4.47;;;2.50;;
70459;SDS011;57920;54.796;9.430;2022-10-16T20:56:03;5.47;;;2.17;;
70459;SDS011;57920;54.796;9.430;2022-10-16T20:58:29;3.50;;;2.20;;
70459;SDS011;57920;54.796;9.430;2022-10-16T21:00:54;2.50;;;1.73;;
70459;SDS011;57920;54.796;9.430;2022-10-16T21:03:20;3.90;;;2.03;;
70459;SDS011;57920;54.796;9.430;2022-10-16T21:08:21;6.67;;;2.30;;
70459;SDS011;57920;54.796;9.430;2022-10-16T21:10:46;2.83;;;1.47;;
70459;SDS011;57920;54.796;9.430;2022-10-16T21:13:12;3.93;;;2.73;;
70459;SDS011;57920;54.796;9.430;2022-10-16T21:15:37;4.57;;;2.57;;
70459;SDS011;57920;54.796;9.430;2022-10-16T21:18:03;3.80;;;2.20;;
70459;SDS011;57920;54.796;9.430;2022-10-16T21:20:28;4.53;;;2.30;;
70459;SDS011;57920;54.796;9.430;2022-10-16T21:22:54;3.70;;;2.30;;
70459;SDS011;57920;54.796;9.430;2022-10-16T21:25:19;3.20;;;1.73;;
70459;SDS011;57920;54.796;9.430;2022-10-16T21:27:45;4.77;;;2.10;;
70459;SDS011;57920;54.796;9.430;2022-10-16T21:30:11;5.67;;;2.43;;
70459;SDS011;57920;54.796;9.430;2022-10-16T21:32:37;3.97;;;2.20;;
70459;SDS011;57920;54.796;9.430;2022-10-16T21:35:04;2.70;;;1.90;;
70459;SDS011;57920;54.796;9.430;2022-10-16T21:37:30;5.60;;;2.33;;
70459;SDS011;57920;54.796;9.430;2022-10-16T21:39:56;4.07;;;2.27;;
70459;SDS011;57920;54.796;9.430;2022-10-16T21:42:21;4.20;;;2.20;;
70459;SDS011;57920;54.796;9.430;2022-10-16T21:44:47;6.03;;;2.70;;
70459;SDS011;57920;54.796;9.430;2022-10-16T21:47:13;2.87;;;1.97;;
70459;SDS011;57920;54.796;9.430;2022-10-16T21:49:38;4.03;;;2.03;;
70459;SDS011;57920;54.796;9.430;2022-10-16T21:52:04;2.97;;;1.90;;
70459;SDS011;57920;54.796;9.430;2022-10-16T21:54:29;3.30;;;2.20;;
70459;SDS011;57920;54.796;9.430;2022-10-16T21:56:55;3.47;;;2.33;;
70459;SDS011;57920;54.796;9.430;2022-10-16T21:59:21;5.17;;;1.80;;
70459;SDS011;57920;54.796;9.430;2022-10-16T22:01:46;5.10;;;2.70;;
70459;SDS011;57920;54.796;9.430;2022-10-16T22:04:14;5.60;;;2.20;;
70459;SDS011;57920;54.796;9.430;2022-10-16T22:06:41;5.07;;;2.63;;
70459;SDS011;57920;54.796;9.430;2022-10-16T22:09:07;4.87;;;2.33;;
70459;SDS011;57920;54.796;9.430;2022-10-16T22:11:36;4.37;;;2.77;;
70459;SDS011;57920;54.796;9.430;2022-10-16T22:14:12;5.20;;;2.20;;
70459;SDS011;57920;54.796;9.430;2022-10-16T22:16:41;4.07;;;2.10;;
70459;SDS011;57920;54.796;9.430;2022-10-16T22:19:07;4.63;;;2.10;;
70459;SDS011;57920;54.796;9.430;2022-10-16T22:21:35;5.63;;;2.27;;
70459;SDS011;57920;54.796;9.430;2022-10-16T22:24:02;4.40;;;2.40;;
70459;SDS011;57920;54.796;9.430;2022-10-16T22:26:28;3.63;;;2.13;;
70459;SDS011;57920;54.796;9.430;2022-10-16T22:28:53;5.37;;;2.33;;
70459;SDS011;57920;54.796;9.430;2022-10-16T22:31:20;4.13;;;2.20;;
70459;SDS011;57920;54.796;9.430;2022-10-16T22:33:47;3.77;;;2.17;;
70459;SDS011;57920;54.796;9.430;2022-10-16T22:36:21;3.30;;;2.10;;
70459;SDS011;57920;54.796;9.430;2022-10-16T22:38:47;2.57;;;2.00;;
70459;SDS011;57920;54.796;9.430;2022-10-16T22:41:12;3.03;;;2.27;;
70459;SDS011;57920;54.796;9.430;2022-10-16T22:43:42;3.80;;;2.00;;
70459;SDS011;57920;54.796;9.430;2022-10-16T22:46:10;4.20;;;2.03;;
70459;SDS011;57920;54.796;9.430;2022-10-16T22:48:38;3.63;;;2.33;;
70459;SDS011;57920;54.796;9.430;2022-10-16T22:51:04;5.23;;;2.37;;
70459;SDS011;57920;54.796;9.430;2022-10-16T22:53:31;5.07;;;2.17;;
70459;SDS011;57920;54.796;9.430;2022-10-16T22:55:57;2.90;;;1.90;;
70459;SDS011;57920;54.796;9.430;2022-10-16T22:58:22;4.00;;;2.03;;
70459;SDS011;57920;54.796;9.430;2022-10-16T23:00:48;3.60;;;2.30;;
70459;SDS011;57920;54.796;9.430;2022-10-16T23:03:14;6.27;;;2.73;;
70459;SDS011;57920;54.796;9.430;2022-10-16T23:05:40;3.70;;;2.33;;
70459;SDS011;57920;54.796;9.430;2022-10-16T23:08:07;5.17;;;2.00;;
70459;SDS011;57920;54.796;9.430;2022-10-16T23:10:34;2.47;;;1.80;;
70459;SDS011;57920;54.796;9.430;2022-10-16T23:13:03;2.23;;;1.90;;
70459;SDS011;57920;54.796;9.430;2022-10-16T23:15:28;3.87;;;2.10;;
70459;SDS011;57920;54.796;9.430;2022-10-16T23:17:54;4.73;;;2.30;;
70459;SDS011;57920;54.796;9.430;2022-10-16T23:20:20;3.53;;;2.07;;
70459;SDS011;57920;54.796;9.430;2022-10-16T23:22:45;4.80;;;2.13;;
70459;SDS011;57920;54.796;9.430;2022-10-16T23:25:11;4.10;;;1.73;;
70459;SDS011;57920;54.796;9.430;2022-10-16T23:27:36;4.80;;;2.70;;
70459;SDS011;57920;54.796;9.430;2022-10-16T23:30:02;4.77;;;1.90;;
70459;SDS011;57920;54.796;9.430;2022-10-16T23:32:30;2.67;;;1.57;;
70459;SDS011;57920;54.796;9.430;2022-10-16T23:34:56;2.97;;;1.90;;
70459;SDS011;57920;54.796;9.430;2022-10-16T23:37:22;4.80;;;2.40;;
70459;SDS011;57920;54.796;9.430;2022-10-16T23:39:48;2.83;;;1.73;;
70459;SDS011;57920;54.796;9.430;2022-10-16T23:42:14;3.50;;;1.70;;
70459;SDS011;57920;54.796;9.430;2022-10-16T23:44:40;4.10;;;2.00;;
70459;SDS011;57920;54.796;9.430;2022-10-16T23:47:05;5.20;;;2.17;;
70459;SDS011;57920;54.796;9.430;2022-10-16T23:49:31;6.37;;;2.17;;
70459;SDS011;57920;54.796;9.430;2022-10-16T23:51:56;3.20;;;2.13;;
70459;SDS011;57920;54.796;9.430;2022-10-16T23:54:22;4.97;;;2.10;;
70459;SDS011;57920;54.796;9.430;2022-10-16T23:56:47;3.07;;;2.00;;
70459;SDS011;57920;54.796;9.430;2022-10-16T23:59:13;3.63;;;2.20;;
